sensor_id;sensor_type;location;lat;lon;timestamp;P1;durP1;ratioP1;P2;durP2;ratioP2
56381;SDS011;50261;51.150;4.470;2023-09-07T00:02:17;8.63;;;5.25;;
56381;SDS011;50261;51.150;4.470;2023-09-07T00:04:42;5.82;;;4.60;;
56381;SDS011;50261;51.150;4.470;2023-09-07T00:07:08;8.15;;;5.10;;
56381;SDS011;50261;51.150;4.470;2023-09-07T00:09:34;9.15;;;4.90;;
56381;SDS011;50261;51.150;4.470;2023-09-07T00:12:00;8.15;;;5.10;;
56381;SDS011;50261;51.150;4.470;2023-09-07T00:14:25;6.00;;;4.88;;
56381;SDS011;50261;51.150;4.470;2023-09-07T00:16:51;10.68;;;5.05;;
56381;SDS011;50261;51.150;4.470;2023-09-07T00:19:17;8.10;;;4.93;;
56381;SDS011;50261;51.150;4.470;2023-09-07T00:21:42;9.13;;;5.43;;
56381;SDS011;50261;51.150;4.470;2023-09-07T00:24:08;6.45;;;4.45;;
56381;SDS011;50261;51.150;4.470;2023-09-07T00:26:34;8.30;;;4.88;;
56381;SDS011;50261;51.150;4.470;2023-09-07T00:29:00;7.88;;;5.18;;
56381;SDS011;50261;51.150;4.470;2023-09-07T00:31:26;9.48;;;5.43;;
56381;SDS011;50261;51.150;4.470;2023-09-07T00:33:52;6.60;;;5.10;;
56381;SDS011;50261;51.150;4.470;2023-09-07T00:36:17;7.47;;;5.25;;
56381;SDS011;50261;51.150;4.470;2023-09-07T00:38:43;6.28;;;5.18;;
56381;SDS011;50261;51.150;4.470;2023-09-07T00:41:09;9.23;;;4.75;;
56381;SDS011;50261;51.150;4.470;2023-09-07T00:43:35;8.68;;;4.88;;
56381;SDS011;50261;51.150;4.470;2023-09-07T00:46:00;8.93;;;5.30;;
56381;SDS011;50261;51.150;4.470;2023-09-07T00:48:26;10.73;;;5.10;;
56381;SDS011;50261;51.150;4.470;2023-09-07T00:50:52;7.07;;;4.53;;
56381;SDS011;50261;51.150;4.470;2023-09-07T00:53:18;7.57;;;4.82;;
56381;SDS011;50261;51.150;4.470;2023-09-07T00:55:44;9.48;;;5.13;;
56381;SDS011;50261;51.150;4.470;2023-09-07T00:58:10;7.85;;;5.50;;
56381;SDS011;50261;51.150;4.470;2023-09-07T01:00:37;6.63;;;5.22;;
56381;SDS011;50261;51.150;4.470;2023-09-07T01:03:03;7.90;;;5.07;;
56381;SDS011;50261;51.150;4.470;2023-09-07T01:06:12;9.02;;;4.82;;
56381;SDS011;50261;51.150;4.470;2023-09-07T01:08:20;11.15;;;5.30;;
56381;SDS011;50261;51.150;4.470;2023-09-07T01:10:48;7.60;;;4.88;;
56381;SDS011;50261;51.150;4.470;2023-09-07T01:13:14;8.63;;;5.25;;
56381;SDS011;50261;51.150;4.470;2023-09-07T01:15:39;10.55;;;4.85;;
56381;SDS011;50261;51.150;4.470;2023-09-07T01:18:05;10.18;;;5.70;;
56381;SDS011;50261;51.150;4.470;2023-09-07T01:20:32;6.72;;;4.68;;
56381;SDS011;50261;51.150;4.470;2023-09-07T01:22:58;10.20;;;5.93;;
56381;SDS011;50261;51.150;4.470;2023-09-07T01:25:24;9.18;;;5.47;;
56381;SDS011;50261;51.150;4.470;2023-09-07T01:27:50;7.85;;;5.38;;
56381;SDS011;50261;51.150;4.470;2023-09-07T01:30:16;7.80;;;5.22;;
56381;SDS011;50261;51.150;4.470;2023-09-07T01:32:42;8.32;;;5.72;;
56381;SDS011;50261;51.150;4.470;2023-09-07T01:35:08;8.27;;;5.43;;
56381;SDS011;50261;51.150;4.470;2023-09-07T01:37:35;9.63;;;4.95;;
56381;SDS011;50261;51.150;4.470;2023-09-07T01:40:02;8.18;;;4.88;;
56381;SDS011;50261;51.150;4.470;2023-09-07T01:42:33;7.85;;;5.45;;
56381;SDS011;50261;51.150;4.470;2023-09-07T01:44:58;6.18;;;5.05;;
56381;SDS011;50261;51.150;4.470;2023-09-07T01:47:24;8.73;;;5.32;;
56381;SDS011;50261;51.150;4.470;2023-09-07T01:49:50;9.02;;;5.22;;
56381;SDS011;50261;51.150;4.470;2023-09-07T01:52:15;6.05;;;4.88;;
56381;SDS011;50261;51.150;4.470;2023-09-07T01:54:42;9.60;;;5.35;;
56381;SDS011;50261;51.150;4.470;2023-09-07T01:57:07;9.10;;;5.00;;
56381;SDS011;50261;51.150;4.470;2023-09-07T01:59:33;7.32;;;5.15;;
56381;SDS011;50261;51.150;4.470;2023-09-07T02:01:59;8.32;;;5.32;;
56381;SDS011;50261;51.150;4.470;2023-09-07T02:04:24;6.70;;;4.93;;
56381;SDS011;50261;51.150;4.470;2023-09-07T02:06:50;5.25;;;4.70;;
56381;SDS011;50261;51.150;4.470;2023-09-07T02:09:16;9.02;;;5.50;;
56381;SDS011;50261;51.150;4.470;2023-09-07T02:11:42;6.20;;;5.00;;
56381;SDS011;50261;51.150;4.470;2023-09-07T02:14:07;6.07;;;5.40;;
56381;SDS011;50261;51.150;4.470;2023-09-07T02:16:34;9.20;;;5.40;;
56381;SDS011;50261;51.150;4.470;2023-09-07T02:19:03;7.22;;;5.38;;
56381;SDS011;50261;51.150;4.470;2023-09-07T02:21:29;8.63;;;5.65;;
56381;SDS011;50261;51.150;4.470;2023-09-07T02:23:55;7.95;;;5.32;;
56381;SDS011;50261;51.150;4.470;2023-09-07T02:26:20;8.70;;;5.05;;
56381;SDS011;50261;51.150;4.470;2023-09-07T02:28:46;8.80;;;5.10;;
56381;SDS011;50261;51.150;4.470;2023-09-07T02:31:12;8.45;;;5.43;;
56381;SDS011;50261;51.150;4.470;2023-09-07T02:33:38;8.70;;;5.35;;
56381;SDS011;50261;51.150;4.470;2023-09-07T02:36:04;7.38;;;5.18;;
56381;SDS011;50261;51.150;4.470;2023-09-07T02:38:30;9.88;;;5.85;;
56381;SDS011;50261;51.150;4.470;2023-09-07T02:40:56;8.15;;;5.88;;
56381;SDS011;50261;51.150;4.470;2023-09-07T02:43:23;8.65;;;5.82;;
56381;SDS011;50261;51.150;4.470;2023-09-07T02:45:49;9.73;;;5.57;;
56381;SDS011;50261;51.150;4.470;2023-09-07T02:48:16;7.05;;;5.53;;
56381;SDS011;50261;51.150;4.470;2023-09-07T02:50:42;7.00;;;5.72;;
56381;SDS011;50261;51.150;4.470;2023-09-07T02:53:08;7.90;;;5.63;;
56381;SDS011;50261;51.150;4.470;2023-09-07T02:55:34;6.40;;;4.97;;
56381;SDS011;50261;51.150;4.470;2023-09-07T02:58:03;11.00;;;5.68;;
56381;SDS011;50261;51.150;4.470;2023-09-07T03:00:29;7.25;;;5.38;;
56381;SDS011;50261;51.150;4.470;2023-09-07T03:02:54;8.18;;;5.72;;
56381;SDS011;50261;51.150;4.470;2023-09-07T03:05:20;7.68;;;5.55;;
56381;SDS011;50261;51.150;4.470;2023-09-07T03:07:46;7.93;;;5.57;;
56381;SDS011;50261;51.150;4.470;2023-09-07T03:10:17;12.25;;;6.32;;
56381;SDS011;50261;51.150;4.470;2023-09-07T03:12:44;10.25;;;5.80;;
56381;SDS011;50261;51.150;4.470;2023-09-07T03:15:09;7.53;;;5.65;;
56381;SDS011;50261;51.150;4.470;2023-09-07T03:17:36;8.07;;;6.22;;
56381;SDS011;50261;51.150;4.470;2023-09-07T03:20:02;9.38;;;6.38;;
56381;SDS011;50261;51.150;4.470;2023-09-07T03:22:43;8.60;;;5.70;;
56381;SDS011;50261;51.150;4.470;2023-09-07T03:25:10;10.93;;;6.60;;
56381;SDS011;50261;51.150;4.470;2023-09-07T03:27:38;8.07;;;6.03;;
56381;SDS011;50261;51.150;4.470;2023-09-07T03:30:07;10.77;;;5.72;;
56381;SDS011;50261;51.150;4.470;2023-09-07T03:32:34;7.93;;;6.32;;
56381;SDS011;50261;51.150;4.470;2023-09-07T03:35:00;8.98;;;6.38;;
56381;SDS011;50261;51.150;4.470;2023-09-07T03:37:28;9.45;;;6.32;;
56381;SDS011;50261;51.150;4.470;2023-09-07T03:39:57;8.27;;;6.30;;
56381;SDS011;50261;51.150;4.470;2023-09-07T03:42:23;8.55;;;6.55;;
56381;SDS011;50261;51.150;4.470;2023-09-07T03:44:49;9.32;;;6.25;;
56381;SDS011;50261;51.150;4.470;2023-09-07T03:47:15;10.25;;;7.40;;
56381;SDS011;50261;51.150;4.470;2023-09-07T03:49:41;10.65;;;6.88;;
56381;SDS011;50261;51.150;4.470;2023-09-07T03:52:07;9.35;;;7.68;;
56381;SDS011;50261;51.150;4.470;2023-09-07T03:54:32;10.63;;;8.65;;
56381;SDS011;50261;51.150;4.470;2023-09-07T03:56:58;11.13;;;8.07;;
56381;SDS011;50261;51.150;4.470;2023-09-07T03:59:24;12.35;;;8.93;;
56381;SDS011;50261;51.150;4.470;2023-09-07T04:01:50;11.05;;;9.18;;
56381;SDS011;50261;51.150;4.470;2023-09-07T04:04:15;12.25;;;8.48;;
56381;SDS011;50261;51.150;4.470;2023-09-07T04:06:41;11.10;;;8.57;;
56381;SDS011;50261;51.150;4.470;2023-09-07T04:09:07;11.90;;;9.13;;
56381;SDS011;50261;51.150;4.470;2023-09-07T04:11:32;12.63;;;8.80;;
56381;SDS011;50261;51.150;4.470;2023-09-07T04:13:59;13.25;;;8.43;;
56381;SDS011;50261;51.150;4.470;2023-09-07T04:16:24;11.30;;;8.30;;
56381;SDS011;50261;51.150;4.470;2023-09-07T04:18:50;13.07;;;8.87;;
56381;SDS011;50261;51.150;4.470;2023-09-07T04:21:16;13.80;;;8.73;;
56381;SDS011;50261;51.150;4.470;2023-09-07T04:23:43;12.25;;;8.57;;
56381;SDS011;50261;51.150;4.470;2023-09-07T04:26:09;10.63;;;8.87;;
56381;SDS011;50261;51.150;4.470;2023-09-07T04:28:36;12.15;;;8.20;;
56381;SDS011;50261;51.150;4.470;2023-09-07T04:31:02;13.40;;;8.60;;
56381;SDS011;50261;51.150;4.470;2023-09-07T04:33:33;12.45;;;8.32;;
56381;SDS011;50261;51.150;4.470;2023-09-07T04:36:09;11.38;;;8.07;;
56381;SDS011;50261;51.150;4.470;2023-09-07T04:38:36;9.07;;;7.57;;
56381;SDS011;50261;51.150;4.470;2023-09-07T04:41:08;11.33;;;8.00;;
56381;SDS011;50261;51.150;4.470;2023-09-07T04:43:34;10.80;;;8.02;;
56381;SDS011;50261;51.150;4.470;2023-09-07T04:46:01;9.90;;;8.20;;
56381;SDS011;50261;51.150;4.470;2023-09-07T04:48:27;10.55;;;7.60;;
56381;SDS011;50261;51.150;4.470;2023-09-07T04:50:59;10.90;;;7.32;;
56381;SDS011;50261;51.150;4.470;2023-09-07T04:53:27;10.57;;;7.45;;
56381;SDS011;50261;51.150;4.470;2023-09-07T04:55:52;10.68;;;7.35;;
56381;SDS011;50261;51.150;4.470;2023-09-07T04:58:18;10.53;;;7.80;;
56381;SDS011;50261;51.150;4.470;2023-09-07T05:00:44;11.30;;;7.75;;
56381;SDS011;50261;51.150;4.470;2023-09-07T05:03:10;12.15;;;7.45;;
56381;SDS011;50261;51.150;4.470;2023-09-07T05:05:35;10.02;;;7.45;;
56381;SDS011;50261;51.150;4.470;2023-09-07T05:08:01;15.43;;;8.47;;
56381;SDS011;50261;51.150;4.470;2023-09-07T05:10:27;10.35;;;7.85;;
56381;SDS011;50261;51.150;4.470;2023-09-07T05:12:53;12.97;;;8.17;;
56381;SDS011;50261;51.150;4.470;2023-09-07T05:15:18;12.35;;;8.48;;
56381;SDS011;50261;51.150;4.470;2023-09-07T05:17:44;12.43;;;8.70;;
56381;SDS011;50261;51.150;4.470;2023-09-07T05:20:10;13.07;;;9.50;;
56381;SDS011;50261;51.150;4.470;2023-09-07T05:22:36;13.20;;;8.55;;
56381;SDS011;50261;51.150;4.470;2023-09-07T05:25:05;15.23;;;9.60;;
56381;SDS011;50261;51.150;4.470;2023-09-07T05:27:31;11.87;;;8.20;;
56381;SDS011;50261;51.150;4.470;2023-09-07T05:29:56;14.35;;;8.88;;
56381;SDS011;50261;51.150;4.470;2023-09-07T05:32:22;12.60;;;9.30;;
56381;SDS011;50261;51.150;4.470;2023-09-07T05:34:48;11.50;;;8.70;;
56381;SDS011;50261;51.150;4.470;2023-09-07T05:37:14;13.63;;;9.10;;
56381;SDS011;50261;51.150;4.470;2023-09-07T05:39:39;11.68;;;9.02;;
56381;SDS011;50261;51.150;4.470;2023-09-07T05:42:05;12.30;;;8.73;;
56381;SDS011;50261;51.150;4.470;2023-09-07T05:44:31;12.53;;;9.47;;
56381;SDS011;50261;51.150;4.470;2023-09-07T05:46:56;11.80;;;8.52;;
56381;SDS011;50261;51.150;4.470;2023-09-07T05:49:24;14.45;;;9.18;;
56381;SDS011;50261;51.150;4.470;2023-09-07T05:51:49;13.43;;;9.00;;
56381;SDS011;50261;51.150;4.470;2023-09-07T05:54:15;13.27;;;8.80;;
56381;SDS011;50261;51.150;4.470;2023-09-07T05:56:41;11.18;;;8.80;;
56381;SDS011;50261;51.150;4.470;2023-09-07T05:59:07;12.83;;;8.50;;
56381;SDS011;50261;51.150;4.470;2023-09-07T06:01:33;14.80;;;8.82;;
56381;SDS011;50261;51.150;4.470;2023-09-07T06:03:58;11.97;;;9.00;;
56381;SDS011;50261;51.150;4.470;2023-09-07T06:06:24;14.57;;;9.35;;
56381;SDS011;50261;51.150;4.470;2023-09-07T06:08:50;12.25;;;9.43;;
56381;SDS011;50261;51.150;4.470;2023-09-07T06:11:16;13.52;;;9.00;;
56381;SDS011;50261;51.150;4.470;2023-09-07T06:13:42;11.50;;;8.90;;
56381;SDS011;50261;51.150;4.470;2023-09-07T06:16:08;13.60;;;9.50;;
56381;SDS011;50261;51.150;4.470;2023-09-07T06:18:34;14.70;;;8.80;;
56381;SDS011;50261;51.150;4.470;2023-09-07T06:21:00;12.10;;;8.50;;
56381;SDS011;50261;51.150;4.470;2023-09-07T06:23:26;13.17;;;9.00;;
56381;SDS011;50261;51.150;4.470;2023-09-07T06:25:52;11.98;;;8.82;;
56381;SDS011;50261;51.150;4.470;2023-09-07T06:28:19;12.82;;;9.00;;
56381;SDS011;50261;51.150;4.470;2023-09-07T06:30:45;12.32;;;9.00;;
56381;SDS011;50261;51.150;4.470;2023-09-07T06:33:11;14.23;;;9.02;;
56381;SDS011;50261;51.150;4.470;2023-09-07T06:35:36;14.13;;;9.13;;
56381;SDS011;50261;51.150;4.470;2023-09-07T06:38:02;12.52;;;9.32;;
56381;SDS011;50261;51.150;4.470;2023-09-07T06:40:28;13.80;;;9.50;;
56381;SDS011;50261;51.150;4.470;2023-09-07T06:42:56;14.18;;;8.93;;
56381;SDS011;50261;51.150;4.470;2023-09-07T06:45:24;13.02;;;9.20;;
56381;SDS011;50261;51.150;4.470;2023-09-07T06:47:50;12.32;;;8.68;;
56381;SDS011;50261;51.150;4.470;2023-09-07T06:50:17;11.45;;;9.00;;
56381;SDS011;50261;51.150;4.470;2023-09-07T06:52:43;14.80;;;9.57;;
56381;SDS011;50261;51.150;4.470;2023-09-07T06:55:08;12.50;;;8.60;;
56381;SDS011;50261;51.150;4.470;2023-09-07T06:57:35;10.60;;;8.43;;
56381;SDS011;50261;51.150;4.470;2023-09-07T07:00:02;10.52;;;8.13;;
56381;SDS011;50261;51.150;4.470;2023-09-07T07:02:31;12.00;;;8.27;;
56381;SDS011;50261;51.150;4.470;2023-09-07T07:04:57;12.50;;;8.32;;
56381;SDS011;50261;51.150;4.470;2023-09-07T07:07:22;10.70;;;8.20;;
56381;SDS011;50261;51.150;4.470;2023-09-07T07:09:48;11.55;;;8.02;;
56381;SDS011;50261;51.150;4.470;2023-09-07T07:12:14;9.43;;;8.13;;
56381;SDS011;50261;51.150;4.470;2023-09-07T07:14:40;9.90;;;8.13;;
56381;SDS011;50261;51.150;4.470;2023-09-07T07:17:05;12.50;;;8.07;;
56381;SDS011;50261;51.150;4.470;2023-09-07T07:19:32;11.80;;;8.45;;
56381;SDS011;50261;51.150;4.470;2023-09-07T07:22:00;12.00;;;7.80;;
56381;SDS011;50261;51.150;4.470;2023-09-07T07:24:26;11.73;;;7.80;;
56381;SDS011;50261;51.150;4.470;2023-09-07T07:26:52;11.00;;;8.00;;
56381;SDS011;50261;51.150;4.470;2023-09-07T07:29:18;12.13;;;8.80;;
56381;SDS011;50261;51.150;4.470;2023-09-07T07:31:44;11.23;;;7.53;;
56381;SDS011;50261;51.150;4.470;2023-09-07T07:34:10;10.50;;;7.47;;
56381;SDS011;50261;51.150;4.470;2023-09-07T07:36:36;10.98;;;7.63;;
56381;SDS011;50261;51.150;4.470;2023-09-07T07:39:03;10.38;;;7.40;;
56381;SDS011;50261;51.150;4.470;2023-09-07T07:41:29;10.68;;;7.10;;
56381;SDS011;50261;51.150;4.470;2023-09-07T07:43:55;10.05;;;7.50;;
56381;SDS011;50261;51.150;4.470;2023-09-07T07:46:22;9.53;;;6.90;;
56381;SDS011;50261;51.150;4.470;2023-09-07T07:48:47;9.65;;;6.63;;
56381;SDS011;50261;51.150;4.470;2023-09-07T07:51:13;8.37;;;6.47;;
56381;SDS011;50261;51.150;4.470;2023-09-07T07:53:41;9.68;;;6.68;;
56381;SDS011;50261;51.150;4.470;2023-09-07T07:56:19;8.15;;;6.80;;
56381;SDS011;50261;51.150;4.470;2023-09-07T07:58:47;9.32;;;6.70;;
56381;SDS011;50261;51.150;4.470;2023-09-07T08:01:14;7.78;;;6.40;;
56381;SDS011;50261;51.150;4.470;2023-09-07T08:03:40;15.50;;;6.85;;
56381;SDS011;50261;51.150;4.470;2023-09-07T08:06:05;8.43;;;6.13;;
56381;SDS011;50261;51.150;4.470;2023-09-07T08:08:31;10.27;;;5.70;;
56381;SDS011;50261;51.150;4.470;2023-09-07T08:10:57;9.77;;;5.88;;
56381;SDS011;50261;51.150;4.470;2023-09-07T08:13:25;7.78;;;5.50;;
56381;SDS011;50261;51.150;4.470;2023-09-07T08:15:51;9.47;;;5.93;;
56381;SDS011;50261;51.150;4.470;2023-09-07T08:18:16;8.70;;;5.50;;
56381;SDS011;50261;51.150;4.470;2023-09-07T08:20:42;8.30;;;5.83;;
56381;SDS011;50261;51.150;4.470;2023-09-07T08:23:07;9.97;;;5.40;;
56381;SDS011;50261;51.150;4.470;2023-09-07T08:25:36;7.88;;;5.72;;
56381;SDS011;50261;51.150;4.470;2023-09-07T08:28:04;9.57;;;5.50;;
56381;SDS011;50261;51.150;4.470;2023-09-07T08:30:33;8.90;;;5.90;;
56381;SDS011;50261;51.150;4.470;2023-09-07T08:32:59;8.25;;;5.82;;
56381;SDS011;50261;51.150;4.470;2023-09-07T08:35:27;11.97;;;5.57;;
56381;SDS011;50261;51.150;4.470;2023-09-07T08:37:56;6.47;;;4.95;;
56381;SDS011;50261;51.150;4.470;2023-09-07T08:40:24;10.68;;;5.18;;
56381;SDS011;50261;51.150;4.470;2023-09-07T08:42:51;7.57;;;5.03;;
56381;SDS011;50261;51.150;4.470;2023-09-07T08:45:17;10.00;;;5.55;;
56381;SDS011;50261;51.150;4.470;2023-09-07T08:47:46;8.02;;;5.00;;
56381;SDS011;50261;51.150;4.470;2023-09-07T08:50:12;8.97;;;5.43;;
56381;SDS011;50261;51.150;4.470;2023-09-07T08:52:39;7.70;;;5.70;;
56381;SDS011;50261;51.150;4.470;2023-09-07T08:55:05;7.93;;;5.10;;
56381;SDS011;50261;51.150;4.470;2023-09-07T08:57:32;8.13;;;5.05;;
56381;SDS011;50261;51.150;4.470;2023-09-07T08:59:58;8.37;;;5.20;;
56381;SDS011;50261;51.150;4.470;2023-09-07T09:02:23;8.25;;;5.20;;
56381;SDS011;50261;51.150;4.470;2023-09-07T09:04:49;9.70;;;4.82;;
56381;SDS011;50261;51.150;4.470;2023-09-07T09:07:16;5.90;;;4.60;;
56381;SDS011;50261;51.150;4.470;2023-09-07T09:09:41;6.65;;;4.60;;
56381;SDS011;50261;51.150;4.470;2023-09-07T09:12:08;6.50;;;4.60;;
56381;SDS011;50261;51.150;4.470;2023-09-07T09:14:34;7.18;;;4.63;;
56381;SDS011;50261;51.150;4.470;2023-09-07T09:17:00;5.25;;;4.30;;
56381;SDS011;50261;51.150;4.470;2023-09-07T09:19:32;8.47;;;4.30;;
56381;SDS011;50261;51.150;4.470;2023-09-07T09:21:58;5.57;;;4.40;;
56381;SDS011;50261;51.150;4.470;2023-09-07T09:24:23;6.00;;;3.63;;
56381;SDS011;50261;51.150;4.470;2023-09-07T09:26:49;6.30;;;3.78;;
56381;SDS011;50261;51.150;4.470;2023-09-07T09:29:15;8.80;;;4.23;;
56381;SDS011;50261;51.150;4.470;2023-09-07T09:31:40;7.00;;;4.00;;
56381;SDS011;50261;51.150;4.470;2023-09-07T09:34:06;5.55;;;3.97;;
56381;SDS011;50261;51.150;4.470;2023-09-07T09:36:32;6.00;;;4.00;;
56381;SDS011;50261;51.150;4.470;2023-09-07T09:38:58;5.63;;;3.95;;
56381;SDS011;50261;51.150;4.470;2023-09-07T09:41:24;5.93;;;3.43;;
56381;SDS011;50261;51.150;4.470;2023-09-07T09:43:50;7.03;;;3.63;;
56381;SDS011;50261;51.150;4.470;2023-09-07T09:46:19;4.75;;;3.50;;
56381;SDS011;50261;51.150;4.470;2023-09-07T09:48:45;6.65;;;3.42;;
56381;SDS011;50261;51.150;4.470;2023-09-07T09:51:11;4.30;;;3.40;;
56381;SDS011;50261;51.150;4.470;2023-09-07T09:53:37;6.47;;;3.20;;
56381;SDS011;50261;51.150;4.470;2023-09-07T09:56:03;3.45;;;2.83;;
56381;SDS011;50261;51.150;4.470;2023-09-07T09:58:29;7.88;;;3.70;;
56381;SDS011;50261;51.150;4.470;2023-09-07T10:00:56;3.93;;;2.87;;
56381;SDS011;50261;51.150;4.470;2023-09-07T10:03:31;4.10;;;2.70;;
56381;SDS011;50261;51.150;4.470;2023-09-07T10:06:10;5.15;;;2.95;;
56381;SDS011;50261;51.150;4.470;2023-09-07T10:08:36;8.50;;;3.15;;
56381;SDS011;50261;51.150;4.470;2023-09-07T10:11:06;5.07;;;3.07;;
56381;SDS011;50261;51.150;4.470;2023-09-07T10:13:32;5.38;;;3.22;;
56381;SDS011;50261;51.150;4.470;2023-09-07T10:16:05;11.52;;;3.35;;
56381;SDS011;50261;51.150;4.470;2023-09-07T10:18:36;3.47;;;2.78;;
56381;SDS011;50261;51.150;4.470;2023-09-07T10:21:02;6.13;;;2.85;;
56381;SDS011;50261;51.150;4.470;2023-09-07T10:24:01;3.15;;;2.45;;
56381;SDS011;50261;51.150;4.470;2023-09-07T10:26:20;5.45;;;3.13;;
56381;SDS011;50261;51.150;4.470;2023-09-07T10:28:58;3.50;;;2.73;;
56381;SDS011;50261;51.150;4.470;2023-09-07T10:31:24;5.30;;;3.00;;
56381;SDS011;50261;51.150;4.470;2023-09-07T10:33:51;5.35;;;2.60;;
56381;SDS011;50261;51.150;4.470;2023-09-07T10:36:23;4.37;;;3.10;;
56381;SDS011;50261;51.150;4.470;2023-09-07T10:38:49;4.88;;;2.85;;
56381;SDS011;50261;51.150;4.470;2023-09-07T10:41:18;3.95;;;2.90;;
56381;SDS011;50261;51.150;4.470;2023-09-07T10:43:48;5.63;;;2.93;;
56381;SDS011;50261;51.150;4.470;2023-09-07T10:46:14;4.80;;;2.67;;
56381;SDS011;50261;51.150;4.470;2023-09-07T10:48:40;3.13;;;2.60;;
56381;SDS011;50261;51.150;4.470;2023-09-07T10:51:05;3.58;;;2.80;;
56381;SDS011;50261;51.150;4.470;2023-09-07T10:53:32;2.92;;;2.50;;
56381;SDS011;50261;51.150;4.470;2023-09-07T10:56:04;3.90;;;2.58;;
56381;SDS011;50261;51.150;4.470;2023-09-07T10:58:33;3.40;;;2.50;;
56381;SDS011;50261;51.150;4.470;2023-09-07T11:01:01;3.65;;;2.53;;
56381;SDS011;50261;51.150;4.470;2023-09-07T11:03:30;3.17;;;2.40;;
56381;SDS011;50261;51.150;4.470;2023-09-07T11:05:59;3.03;;;2.50;;
56381;SDS011;50261;51.150;4.470;2023-09-07T11:08:25;5.80;;;2.90;;
56381;SDS011;50261;51.150;4.470;2023-09-07T11:10:52;5.82;;;2.40;;
56381;SDS011;50261;51.150;4.470;2023-09-07T11:13:18;5.35;;;2.47;;
56381;SDS011;50261;51.150;4.470;2023-09-07T11:15:43;6.68;;;2.50;;
56381;SDS011;50261;51.150;4.470;2023-09-07T11:18:09;4.40;;;2.25;;
56381;SDS011;50261;51.150;4.470;2023-09-07T11:25:26;4.00;;;2.40;;
56381;SDS011;50261;51.150;4.470;2023-09-07T11:27:52;2.95;;;2.50;;
56381;SDS011;50261;51.150;4.470;2023-09-07T11:30:23;3.70;;;2.33;;
56381;SDS011;50261;51.150;4.470;2023-09-07T11:32:49;2.72;;;2.33;;
56381;SDS011;50261;51.150;4.470;2023-09-07T11:35:15;5.32;;;2.10;;
56381;SDS011;50261;51.150;4.470;2023-09-07T11:37:41;5.13;;;2.20;;
56381;SDS011;50261;51.150;4.470;2023-09-07T11:40:08;2.70;;;2.20;;
56381;SDS011;50261;51.150;4.470;2023-09-07T11:42:40;2.67;;;2.15;;
56381;SDS011;50261;51.150;4.470;2023-09-07T11:45:06;4.60;;;2.63;;
56381;SDS011;50261;51.150;4.470;2023-09-07T11:47:32;3.13;;;2.17;;
56381;SDS011;50261;51.150;4.470;2023-09-07T11:50:00;3.58;;;2.17;;
56381;SDS011;50261;51.150;4.470;2023-09-07T11:52:25;5.40;;;2.22;;
56381;SDS011;50261;51.150;4.470;2023-09-07T11:54:52;4.07;;;2.50;;
56381;SDS011;50261;51.150;4.470;2023-09-07T11:57:17;2.50;;;2.30;;
56381;SDS011;50261;51.150;4.470;2023-09-07T11:59:43;3.20;;;2.40;;
56381;SDS011;50261;51.150;4.470;2023-09-07T12:02:09;2.53;;;2.33;;
56381;SDS011;50261;51.150;4.470;2023-09-07T12:04:37;3.50;;;2.58;;
56381;SDS011;50261;51.150;4.470;2023-09-07T12:07:04;2.35;;;2.10;;
56381;SDS011;50261;51.150;4.470;2023-09-07T12:09:29;3.33;;;2.30;;
56381;SDS011;50261;51.150;4.470;2023-09-07T12:11:55;4.47;;;2.40;;
56381;SDS011;50261;51.150;4.470;2023-09-07T12:14:21;3.67;;;2.20;;
56381;SDS011;50261;51.150;4.470;2023-09-07T12:16:48;4.13;;;2.30;;
56381;SDS011;50261;51.150;4.470;2023-09-07T12:19:13;2.92;;;2.20;;
56381;SDS011;50261;51.150;4.470;2023-09-07T12:21:39;3.85;;;2.17;;
56381;SDS011;50261;51.150;4.470;2023-09-07T12:24:05;2.47;;;1.90;;
56381;SDS011;50261;51.150;4.470;2023-09-07T12:26:31;4.90;;;2.25;;
56381;SDS011;50261;51.150;4.470;2023-09-07T12:28:56;3.97;;;2.20;;
56381;SDS011;50261;51.150;4.470;2023-09-07T12:31:22;3.35;;;2.13;;
56381;SDS011;50261;51.150;4.470;2023-09-07T12:33:48;4.10;;;1.98;;
56381;SDS011;50261;51.150;4.470;2023-09-07T12:36:13;4.38;;;2.00;;
56381;SDS011;50261;51.150;4.470;2023-09-07T12:38:39;4.03;;;2.00;;
56381;SDS011;50261;51.150;4.470;2023-09-07T12:41:05;2.40;;;2.10;;
56381;SDS011;50261;51.150;4.470;2023-09-07T12:43:30;4.65;;;2.40;;
56381;SDS011;50261;51.150;4.470;2023-09-07T12:45:57;2.25;;;2.03;;
56381;SDS011;50261;51.150;4.470;2023-09-07T12:48:24;2.53;;;2.10;;
56381;SDS011;50261;51.150;4.470;2023-09-07T12:50:50;2.65;;;2.10;;
56381;SDS011;50261;51.150;4.470;2023-09-07T12:53:15;2.92;;;2.17;;
56381;SDS011;50261;51.150;4.470;2023-09-07T12:55:41;2.40;;;2.20;;
56381;SDS011;50261;51.150;4.470;2023-09-07T12:58:07;2.38;;;2.10;;
56381;SDS011;50261;51.150;4.470;2023-09-07T13:00:32;2.92;;;2.40;;
56381;SDS011;50261;51.150;4.470;2023-09-07T13:02:58;2.15;;;1.95;;
56381;SDS011;50261;51.150;4.470;2023-09-07T13:05:24;2.92;;;2.00;;
56381;SDS011;50261;51.150;4.470;2023-09-07T13:07:50;4.07;;;2.20;;
56381;SDS011;50261;51.150;4.470;2023-09-07T13:10:16;2.58;;;1.92;;
56381;SDS011;50261;51.150;4.470;2023-09-07T13:12:42;3.38;;;2.10;;
56381;SDS011;50261;51.150;4.470;2023-09-07T13:15:08;3.47;;;2.10;;
56381;SDS011;50261;51.150;4.470;2023-09-07T13:17:33;2.88;;;2.25;;
56381;SDS011;50261;51.150;4.470;2023-09-07T13:19:59;2.58;;;2.33;;
56381;SDS011;50261;51.150;4.470;2023-09-07T13:22:25;4.35;;;2.15;;
56381;SDS011;50261;51.150;4.470;2023-09-07T13:24:51;2.80;;;2.47;;
56381;SDS011;50261;51.150;4.470;2023-09-07T13:27:16;7.25;;;2.20;;
56381;SDS011;50261;51.150;4.470;2023-09-07T13:29:42;3.40;;;2.35;;
56381;SDS011;50261;51.150;4.470;2023-09-07T13:32:08;3.90;;;2.10;;
56381;SDS011;50261;51.150;4.470;2023-09-07T13:34:33;2.72;;;2.17;;
56381;SDS011;50261;51.150;4.470;2023-09-07T13:36:59;6.72;;;2.17;;
56381;SDS011;50261;51.150;4.470;2023-09-07T13:39:25;4.00;;;2.10;;
56381;SDS011;50261;51.150;4.470;2023-09-07T13:41:50;3.15;;;2.30;;
56381;SDS011;50261;51.150;4.470;2023-09-07T13:44:16;4.72;;;2.53;;
56381;SDS011;50261;51.150;4.470;2023-09-07T13:46:43;2.97;;;2.10;;
56381;SDS011;50261;51.150;4.470;2023-09-07T13:49:09;3.83;;;2.22;;
56381;SDS011;50261;51.150;4.470;2023-09-07T13:51:35;3.05;;;2.10;;
56381;SDS011;50261;51.150;4.470;2023-09-07T13:54:04;4.70;;;2.17;;
56381;SDS011;50261;51.150;4.470;2023-09-07T13:56:30;2.92;;;2.20;;
56381;SDS011;50261;51.150;4.470;2023-09-07T13:58:56;3.13;;;2.53;;
56381;SDS011;50261;51.150;4.470;2023-09-07T14:01:21;2.50;;;2.30;;
56381;SDS011;50261;51.150;4.470;2023-09-07T14:03:49;3.83;;;2.47;;
56381;SDS011;50261;51.150;4.470;2023-09-07T14:06:14;4.43;;;2.58;;
56381;SDS011;50261;51.150;4.470;2023-09-07T14:08:40;2.72;;;2.10;;
56381;SDS011;50261;51.150;4.470;2023-09-07T14:11:07;3.70;;;2.45;;
56381;SDS011;50261;51.150;4.470;2023-09-07T14:13:32;5.22;;;2.40;;
56381;SDS011;50261;51.150;4.470;2023-09-07T14:16:01;3.15;;;2.25;;
56381;SDS011;50261;51.150;4.470;2023-09-07T14:18:27;3.28;;;2.42;;
56381;SDS011;50261;51.150;4.470;2023-09-07T14:20:53;2.58;;;2.10;;
56381;SDS011;50261;51.150;4.470;2023-09-07T14:23:23;7.00;;;2.60;;
56381;SDS011;50261;51.150;4.470;2023-09-07T14:25:49;9.95;;;2.60;;
56381;SDS011;50261;51.150;4.470;2023-09-07T14:28:14;3.78;;;2.08;;
56381;SDS011;50261;51.150;4.470;2023-09-07T14:30:40;3.53;;;2.47;;
56381;SDS011;50261;51.150;4.470;2023-09-07T14:33:06;3.95;;;2.30;;
56381;SDS011;50261;51.150;4.470;2023-09-07T14:35:31;3.45;;;2.47;;
56381;SDS011;50261;51.150;4.470;2023-09-07T14:37:57;2.33;;;2.10;;
56381;SDS011;50261;51.150;4.470;2023-09-07T14:40:23;2.70;;;2.28;;
56381;SDS011;50261;51.150;4.470;2023-09-07T14:42:49;4.05;;;2.53;;
56381;SDS011;50261;51.150;4.470;2023-09-07T14:45:16;3.67;;;2.25;;